Time;durP1;ratioP1;P1;durP2;ratioP2;P2;SDS_P1;SDS_P2;PMS_P1;PMS_P2;Temp;Humidity;BMP_temperature;BMP_pressure;BME280_temperature;BME280_humidity;BME280_pressure;Samples;Min_cycle;Max_cycle;Signal;HPM_P1;HPM_P2
2022/08/19 00:00:35;;;;;;;2.08;1.08;;;17.00;99.90;;;;;;5074527;28;20024;-72
2022/08/19 00:03:00;;;;;;;4.50;1.17;;;16.90;99.90;;;;;;5056003;28;20021;-72
2022/08/19 00:05:26;;;;;;;2.97;1.77;;;16.90;99.90;;;;;;5074010;28;20027;-72
2022/08/19 00:07:51;;;;;;;1.45;1.10;;;16.90;99.90;;;;;;5073785;28;20023;-72
2022/08/19 00:10:19;;;;;;;1.88;1.02;;;16.90;99.90;;;;;;5073802;28;20441;-72
2022/08/19 00:12:44;;;;;;;1.52;1.30;;;16.90;99.90;;;;;;5073954;28;20087;-72
2022/08/19 00:15:13;;;;;;;5.32;1.17;;;16.90;99.90;;;;;;5073632;28;20079;-72
2022/08/19 00:17:40;;;;;;;1.80;1.20;;;16.90;99.90;;;;;;5055745;28;20105;-72
2022/08/19 00:20:08;;;;;;;3.30;1.50;;;16.90;99.90;;;;;;5073529;28;20052;-72
2022/08/19 00:22:37;;;;;;;3.90;1.40;;;16.80;99.90;;;;;;5073871;28;20044;-72
2022/08/19 00:25:04;;;;;;;1.48;1.38;;;16.80;99.90;;;;;;5055618;28;20027;-72
2022/08/19 00:27:30;;;;;;;3.78;1.10;;;16.80;99.90;;;;;;5055742;28;20074;-72
2022/08/19 00:29:55;;;;;;;3.53;2.03;;;16.80;99.90;;;;;;5055579;28;20016;-72
2022/08/19 00:32:21;;;;;;;1.67;1.05;;;16.70;99.90;;;;;;5055942;28;20403;-72
2022/08/19 00:34:47;;;;;;;0.77;0.70;;;16.70;99.90;;;;;;5055490;28;20085;-71
2022/08/19 00:37:13;;;;;;;7.35;1.05;;;16.70;99.90;;;;;;5073731;28;20029;-71
2022/08/19 00:39:38;;;;;;;2.47;1.15;;;16.60;99.90;;;;;;5055432;28;20039;-71
2022/08/19 00:42:06;;;;;;;3.20;0.95;;;16.60;99.90;;;;;;5073637;28;20017;-71
2022/08/19 00:44:31;;;;;;;3.60;1.15;;;16.50;99.90;;;;;;5073337;28;20008;-72
2022/08/19 00:46:58;;;;;;;1.85;0.82;;;16.50;99.90;;;;;;5073566;28;20083;-71
2022/08/19 00:49:30;;;;;;;2.35;0.70;;;16.60;99.90;;;;;;5073366;28;20025;-71
2022/08/19 00:52:02;;;;;;;1.85;0.77;;;16.60;99.90;;;;;;5055240;28;20021;-71
2022/08/19 00:54:31;;;;;;;1.38;0.82;;;16.60;99.90;;;;;;5073386;28;20028;-71
2022/08/19 00:56:59;;;;;;;1.30;0.90;;;16.50;99.90;;;;;;5073295;28;20094;-71
2022/08/19 00:59:25;;;;;;;0.53;0.40;;;16.60;99.90;;;;;;5073712;28;20027;-71
2022/08/19 01:01:51;;;;;;;1.08;0.57;;;16.50;99.90;;;;;;5073231;28;20251;-71
2022/08/19 01:04:16;;;;;;;2.70;0.73;;;16.50;99.90;;;;;;5073192;28;20477;-71
2022/08/19 01:06:42;;;;;;;1.77;0.90;;;16.50;99.90;;;;;;5073241;28;20023;-71
2022/08/19 01:09:09;;;;;;;2.30;1.30;;;16.50;99.90;;;;;;5073148;28;20504;-71
2022/08/19 01:11:39;;;;;;;0.80;0.50;;;16.50;99.90;;;;;;5055184;28;20036;-71
2022/08/19 01:14:05;;;;;;;0.82;0.50;;;16.50;99.90;;;;;;5073606;28;20408;-72
2022/08/19 01:16:33;;;;;;;2.40;0.60;;;16.40;99.90;;;;;;5072902;28;20435;-71
2022/08/19 01:19:00;;;;;;;0.80;0.30;;;16.40;99.90;;;;;;5073136;28;20028;-72
2022/08/19 01:21:39;;;;;;;1.33;0.60;;;16.40;99.90;;;;;;5073035;28;20024;-71
2022/08/19 01:24:05;;;;;;;0.50;0.50;;;16.40;99.90;;;;;;5073068;28;20040;-71
2022/08/19 01:26:30;;;;;;;0.82;0.40;;;16.40;99.90;;;;;;5054963;28;20025;-71
2022/08/19 01:29:00;;;;;;;0.98;0.90;;;16.30;99.90;;;;;;5073140;28;20025;-72
2022/08/19 01:31:31;;;;;;;2.88;0.68;;;16.30;99.90;;;;;;5072958;28;20025;-71
2022/08/19 01:33:57;;;;;;;1.10;0.63;;;16.30;99.90;;;;;;5072888;28;20083;-71
2022/08/19 01:36:27;;;;;;;4.43;0.45;;;16.30;99.90;;;;;;5072862;28;20053;-71
2022/08/19 01:38:53;;;;;;;3.53;0.57;;;16.30;99.90;;;;;;5073104;28;20024;-71
2022/08/19 01:41:19;;;;;;;1.10;0.68;;;16.20;99.90;;;;;;5076933;28;20527;-71
2022/08/19 01:43:45;;;;;;;1.00;0.90;;;16.20;99.90;;;;;;5076551;28;20020;-71
2022/08/19 01:46:11;;;;;;;1.00;0.70;;;16.10;99.90;;;;;;5076563;28;20442;-71
2022/08/19 01:48:39;;;;;;;1.80;0.68;;;16.10;99.90;;;;;;5058687;28;20064;-71
2022/08/19 01:51:10;;;;;;;3.97;0.80;;;16.10;99.90;;;;;;5076736;28;20024;-71
2022/08/19 01:53:37;;;;;;;1.40;0.93;;;16.10;99.90;;;;;;5076405;28;20467;-71
2022/08/19 01:56:03;;;;;;;1.63;0.68;;;16.10;99.90;;;;;;5076875;28;20020;-71
2022/08/19 01:58:45;;;;;;;0.70;0.50;;;16.10;99.90;;;;;;5076468;28;20115;-71
2022/08/19 02:01:12;;;;;;;0.57;0.57;;;16.10;99.90;;;;;;5076838;28;20029;-71
2022/08/19 02:03:37;;;;;;;2.45;0.93;;;16.10;99.90;;;;;;5076441;28;20036;-71
2022/08/19 02:06:05;;;;;;;2.15;0.90;;;16.10;99.90;;;;;;5076486;28;20398;-71
2022/08/19 02:08:33;;;;;;;3.47;1.33;;;16.10;99.90;;;;;;5076180;28;20052;-71
2022/08/19 02:10:58;;;;;;;2.15;0.85;;;16.10;99.90;;;;;;5076163;28;20032;-71
2022/08/19 02:13:25;;;;;;;1.27;1.13;;;16.10;99.90;;;;;;5076024;28;20029;-71
2022/08/19 02:15:51;;;;;;;5.82;1.60;;;16.10;99.90;;;;;;5075908;28;20039;-71
2022/08/19 02:18:16;;;;;;;1.42;0.82;;;16.10;99.90;;;;;;5076194;28;20020;-71
2022/08/19 02:20:43;;;;;;;1.00;0.90;;;16.00;99.90;;;;;;5075922;28;20481;-71
2022/08/19 02:23:11;;;;;;;1.60;0.63;;;16.00;99.90;;;;;;5075858;28;20028;-71
2022/08/19 02:25:38;;;;;;;1.38;0.90;;;16.00;99.90;;;;;;5076429;28;20063;-71
2022/08/19 02:28:05;;;;;;;0.73;0.73;;;15.90;99.90;;;;;;5075843;28;20020;-71
2022/08/19 02:30:31;;;;;;;2.80;1.00;;;15.90;99.90;;;;;;5057834;28;20029;-71
2022/08/19 02:32:57;;;;;;;1.65;0.85;;;16.00;99.90;;;;;;5075917;28;20070;-71
2022/08/19 02:35:23;;;;;;;1.30;1.20;;;15.90;99.90;;;;;;5075712;28;20043;-71
2022/08/19 02:40:34;;;;;;;3.05;1.83;;;15.90;99.90;;;;;;5075636;28;20031;-71
2022/08/19 02:43:00;;;;;;;5.93;2.20;;;16.00;99.90;;;;;;5075706;28;20020;-71
2022/08/19 02:45:26;;;;;;;3.33;2.25;;;16.00;99.90;;;;;;5057605;28;20446;-71
2022/08/19 02:47:52;;;;;;;2.50;1.80;;;16.00;99.90;;;;;;5075420;28;20073;-71
2022/08/19 02:50:18;;;;;;;3.78;1.98;;;15.90;99.90;;;;;;5074801;28;20103;-71
2022/08/19 02:52:44;;;;;;;3.45;2.45;;;15.90;99.90;;;;;;5075081;28;20063;-71
2022/08/19 02:55:10;;;;;;;4.57;2.45;;;15.90;99.90;;;;;;5075369;28;20021;-71
2022/08/19 02:57:36;;;;;;;5.22;2.78;;;15.90;99.90;;;;;;5075363;28;20362;-71
2022/08/19 03:00:06;;;;;;;7.63;3.30;;;15.90;99.90;;;;;;5075691;28;20476;-71
2022/08/19 03:02:34;;;;;;;6.47;2.97;;;15.90;99.90;;;;;;5074998;28;20024;-71
2022/08/19 03:05:02;;;;;;;5.30;2.17;;;15.90;99.90;;;;;;5075640;28;20100;-71
2022/08/19 03:07:27;;;;;;;6.97;3.10;;;15.90;99.90;;;;;;5075094;28;20020;-71
2022/08/19 03:09:53;;;;;;;5.07;2.08;;;15.80;99.90;;;;;;5075232;28;20020;-71
2022/08/19 03:12:18;;;;;;;6.25;2.30;;;15.70;99.90;;;;;;5075349;28;20064;-71
2022/08/19 03:14:45;;;;;;;3.88;1.40;;;15.70;99.90;;;;;;5074831;28;20063;-71
2022/08/19 03:17:12;;;;;;;3.83;1.83;;;15.80;99.90;;;;;;5074962;28;20028;-71
2022/08/19 03:19:38;;;;;;;3.60;1.70;;;15.80;99.90;;;;;;5075263;28;20021;-71
2022/08/19 03:22:04;;;;;;;4.80;1.67;;;15.80;99.90;;;;;;5074780;28;20032;-71
2022/08/19 03:24:30;;;;;;;6.53;1.33;;;15.80;99.90;;;;;;5074645;28;20020;-71
2022/08/19 03:26:59;;;;;;;8.27;2.28;;;15.80;99.90;;;;;;5056796;28;20028;-71
2022/08/19 03:29:27;;;;;;;4.97;1.70;;;15.70;99.90;;;;;;5056754;28;20048;-71
2022/08/19 03:31:54;;;;;;;3.78;1.95;;;15.70;99.90;;;;;;5074489;28;20032;-71
2022/08/19 03:34:26;;;;;;;3.13;1.90;;;15.70;99.90;;;;;;5074913;28;20020;-71
2022/08/19 03:36:54;;;;;;;4.47;1.92;;;15.70;99.90;;;;;;5074552;28;20380;-71
2022/08/19 03:39:20;;;;;;;1.85;1.50;;;15.70;99.90;;;;;;5074598;28;20467;-71
2022/08/19 03:41:47;;;;;;;2.30;1.30;;;15.70;99.90;;;;;;5074767;28;20020;-71
2022/08/19 03:44:14;;;;;;;2.67;1.67;;;15.60;99.90;;;;;;5074362;28;20020;-71
2022/08/19 03:46:39;;;;;;;4.57;1.85;;;15.60;99.90;;;;;;5074256;28;20481;-71
2022/08/19 03:49:07;;;;;;;3.15;1.73;;;15.60;99.90;;;;;;5074148;28;20071;-71
2022/08/19 03:51:38;;;;;;;4.35;1.88;;;15.60;99.90;;;;;;5074074;28;20024;-71
2022/08/19 03:54:09;;;;;;;5.25;1.70;;;15.50;99.90;;;;;;5074088;28;20436;-71
2022/08/19 03:56:36;;;;;;;3.78;2.50;;;15.50;99.90;;;;;;5074121;28;20033;-71
2022/08/19 03:59:03;;;;;;;3.70;2.28;;;15.50;99.90;;;;;;5073955;28;20371;-71
2022/08/19 04:01:29;;;;;;;6.32;2.63;;;15.40;99.90;;;;;;5073820;28;20473;-71
2022/08/19 04:03:59;;;;;;;6.43;2.72;;;15.40;99.90;;;;;;5074306;28;20029;-71
2022/08/19 04:06:30;;;;;;;7.32;3.17;;;15.40;99.90;;;;;;5073931;28;20048;-71
2022/08/19 04:08:58;;;;;;;5.75;3.17;;;15.40;99.90;;;;;;5056190;28;20016;-71
2022/08/19 04:11:27;;;;;;;5.60;3.72;;;15.40;99.90;;;;;;5073820;28;20028;-71
2022/08/19 04:13:53;;;;;;;5.07;2.90;;;15.40;99.90;;;;;;5074196;28;20035;-71
2022/08/19 04:16:21;;;;;;;5.80;2.95;;;15.40;99.90;;;;;;5055683;28;20079;-71
2022/08/19 04:18:48;;;;;;;6.32;2.83;;;15.40;99.90;;;;;;5055752;28;20021;-71
2022/08/19 04:21:20;;;;;;;5.10;3.30;;;15.40;99.90;;;;;;5073941;28;20382;-71
2022/08/19 04:23:46;;;;;;;4.35;2.60;;;15.30;99.90;;;;;;5055577;28;20021;-71
2022/08/19 04:26:27;;;;;;;6.55;3.40;;;15.30;99.90;;;;;;5055748;28;20173;-71
2022/08/19 04:28:54;;;;;;;9.50;3.60;;;15.30;99.90;;;;;;5073569;28;20028;-71
2022/08/19 04:31:22;;;;;;;6.57;3.90;;;15.40;99.90;;;;;;5073516;28;20020;-71
2022/08/19 04:33:48;;;;;;;6.10;3.63;;;15.40;99.90;;;;;;5073464;28;20043;-71
2022/08/19 04:36:22;;;;;;;7.25;4.13;;;15.40;99.90;;;;;;5073503;28;20107;-71
2022/08/19 04:38:49;;;;;;;7.97;4.82;;;15.40;99.90;;;;;;5073466;28;20028;-71
2022/08/19 04:44:02;;;;;;;10.52;4.90;;;15.40;99.90;;;;;;5074239;28;20086;-72
2022/08/19 04:46:30;;;;;;;10.82;4.90;;;15.40;99.90;;;;;;5055468;28;20017;-72
2022/08/19 04:48:56;;;;;;;17.98;6.78;;;15.40;99.90;;;;;;5073402;28;20031;-72
2022/08/19 04:51:22;;;;;;;14.18;6.07;;;15.40;99.90;;;;;;5073224;28;20054;-72
2022/08/19 04:53:48;;;;;;;14.57;7.05;;;15.50;99.90;;;;;;5055242;28;20497;-72
2022/08/19 04:56:17;;;;;;;13.38;6.50;;;15.50;99.90;;;;;;5073512;28;20059;-72
2022/08/19 04:58:44;;;;;;;17.40;7.75;;;15.50;99.90;;;;;;5073153;28;20073;-72
2022/08/19 05:01:22;;;;;;;19.05;9.07;;;15.60;99.90;;;;;;5073178;28;20522;-72
2022/08/19 05:03:48;;;;;;;14.60;7.68;;;15.60;99.90;;;;;;5073761;28;20034;-72
2022/08/19 05:06:16;;;;;;;18.73;7.68;;;15.70;99.90;;;;;;5073150;28;20040;-72
2022/08/19 05:08:43;;;;;;;17.65;7.47;;;15.70;99.90;;;;;;5073101;28;20138;-72
2022/08/19 05:11:22;;;;;;;15.40;7.60;;;15.70;99.90;;;;;;5073288;28;20029;-72
2022/08/19 05:13:48;;;;;;;;;;;15.80;99.90;;;;;;5073693;28;20020;-72
2022/08/19 05:16:15;;;;;;;23.42;8.93;;;15.80;99.90;;;;;;5077018;28;19912;-72
2022/08/19 05:24:14;;;;;;;22.17;8.75;;;16.00;99.90;;;;;;5077482;28;20035;-72
2022/08/19 05:26:42;;;;;;;14.38;7.28;;;16.10;99.90;;;;;;5059102;28;20546;-72
2022/08/19 05:29:09;;;;;;;15.48;7.50;;;16.10;99.90;;;;;;5058974;28;20024;-72
2022/08/19 05:31:38;;;;;;;19.90;9.18;;;16.20;99.90;;;;;;5076870;28;20025;-72
2022/08/19 05:34:04;;;;;;;20.20;9.75;;;16.30;99.90;;;;;;5077061;28;20390;-72
2022/08/19 05:36:42;;;;;;;17.48;8.93;;;16.30;99.90;;;;;;5076732;28;20031;-72
2022/08/19 05:39:11;;;;;;;18.73;8.88;;;15.70;99.90;;;;;;5076584;28;20533;-72
2022/08/19 05:41:44;;;;;;;19.30;8.05;;;16.50;99.90;;;;;;5076819;28;20381;-72
2022/08/19 05:44:10;;;;;;;31.25;11.77;;;16.60;99.90;;;;;;5076594;28;20020;-72
2022/08/19 05:46:38;;;;;;;26.45;11.25;;;16.70;99.90;;;;;;5058546;28;20031;-72
2022/08/19 05:49:06;;;;;;;32.72;13.23;;;16.80;99.90;;;;;;5076683;28;20024;-72
2022/08/19 05:51:32;;;;;;;38.88;17.17;;;16.90;99.90;;;;;;5076370;28;20025;-72
2022/08/19 05:53:58;;;;;;;35.67;16.10;;;17.10;99.90;;;;;;5058474;28;20493;-72
2022/08/19 05:56:23;;;;;;;35.58;15.63;;;17.30;99.90;;;;;;5076362;28;20016;-72
2022/08/19 05:58:49;;;;;;;42.30;17.83;;;17.50;99.90;;;;;;5076090;28;20028;-72
2022/08/19 06:01:17;;;;;;;45.80;19.88;;;17.70;99.90;;;;;;5076332;28;20047;-72
2022/08/19 06:03:43;;;;;;;53.13;19.75;;;17.90;99.90;;;;;;5076426;28;20035;-72
2022/08/19 06:06:14;;;;;;;51.15;20.85;;;18.00;99.90;;;;;;5076189;28;20021;-72
2022/08/19 06:08:39;;;;;;;53.00;21.55;;;18.20;99.90;;;;;;5076147;28;20482;-72
2022/08/19 06:11:19;;;;;;;47.42;20.20;;;18.30;99.90;;;;;;5076090;28;20032;-72
2022/08/19 06:13:47;;;;;;;53.10;20.30;;;18.30;99.90;;;;;;5075941;28;20497;-72
2022/08/19 06:16:20;;;;;;;48.53;19.30;;;18.40;99.90;;;;;;5057964;28;20033;-72
2022/08/19 06:18:45;;;;;;;48.60;18.17;;;18.40;99.90;;;;;;5076180;28;20103;-72
2022/08/19 06:21:11;;;;;;;51.80;20.75;;;18.50;99.90;;;;;;5075869;28;20155;-72
2022/08/19 06:23:36;;;;;;;60.50;21.60;;;18.40;99.90;;;;;;5076153;28;20029;-73
2022/08/19 06:26:02;;;;;;;61.92;21.52;;;18.50;99.90;;;;;;5076003;28;20380;-72
2022/08/19 06:28:28;;;;;;;60.25;20.58;;;18.50;99.90;;;;;;5075842;28;20074;-72
2022/08/19 06:30:53;;;;;;;62.72;21.83;;;18.40;99.90;;;;;;5075691;28;20021;-72
2022/08/19 06:33:19;;;;;;;68.22;23.33;;;18.50;99.90;;;;;;5075787;28;20029;-72
2022/08/19 06:35:44;;;;;;;62.30;22.52;;;18.40;99.90;;;;;;5057725;28;20038;-72
2022/08/19 06:38:10;;;;;;;67.85;24.50;;;18.40;99.90;;;;;;5057664;28;20029;-72
2022/08/19 06:40:37;;;;;;;67.88;23.75;;;18.40;99.90;;;;;;5075505;28;20091;-72
2022/08/19 06:43:03;;;;;;;78.95;25.40;;;18.40;99.90;;;;;;5075758;28;20100;-72
2022/08/19 06:45:30;;;;;;;61.17;24.05;;;18.40;99.90;;;;;;5075730;28;20465;-72
2022/08/19 06:47:55;;;;;;;69.43;24.30;;;18.40;99.90;;;;;;5057456;28;20021;-72
2022/08/19 06:50:22;;;;;;;65.35;22.45;;;18.40;99.90;;;;;;5057417;28;20027;-72
2022/08/19 06:52:48;;;;;;;68.70;23.65;;;18.50;99.90;;;;;;5057324;28;20112;-72
2022/08/19 06:55:15;;;;;;;62.15;21.42;;;18.60;99.90;;;;;;5075374;28;20019;-72
2022/08/19 06:57:42;;;;;;;59.45;22.35;;;18.70;99.90;;;;;;5075582;28;20044;-72
2022/08/19 07:00:13;;;;;;;64.57;22.45;;;18.90;99.90;;;;;;5075586;28;20377;-72
2022/08/19 07:02:39;;;;;;;56.78;22.95;;;18.80;99.90;;;;;;5075935;28;20028;-72
2022/08/19 07:05:05;;;;;;;62.70;24.02;;;18.90;99.90;;;;;;5075484;28;20021;-72
2022/08/19 07:07:31;;;;;;;59.78;21.17;;;19.00;99.90;;;;;;5075023;28;20063;-72
2022/08/19 07:09:57;;;;;;;61.38;21.95;;;19.10;99.90;;;;;;5074976;28;20543;-72
2022/08/19 07:12:22;;;;;;;55.55;23.05;;;19.10;99.90;;;;;;5074891;28;20082;-72
2022/08/19 07:14:49;;;;;;;53.72;21.08;;;19.30;99.90;;;;;;5086923;23;20064;-74
2022/08/19 07:17:14;;;;;;;54.25;20.70;;;19.30;99.90;;;;;;5114509;28;20030;-74
2022/08/19 07:19:42;;;;;;;49.55;20.17;;;19.40;99.90;;;;;;5115582;28;20471;-74
2022/08/19 07:22:08;;;;;;;52.75;20.17;;;19.40;99.90;;;;;;5115854;28;20016;-73
2022/08/19 07:24:35;;;;;;;50.78;20.88;;;19.40;99.90;;;;;;5115693;28;20532;-73
2022/08/19 07:27:03;;;;;;;48.05;20.05;;;19.40;99.90;;;;;;5115464;28;20464;-73
2022/08/19 07:29:32;;;;;;;54.70;23.15;;;19.50;99.90;;;;;;5114135;28;20042;-72
2022/08/19 07:31:59;;;;;;;49.90;21.83;;;19.50;99.90;;;;;;5115295;28;20027;-72
2022/08/19 07:34:27;;;;;;;55.63;22.25;;;19.70;99.90;;;;;;5115297;28;20533;-72
2022/08/19 07:36:53;;;;;;;52.88;21.63;;;19.70;99.90;;;;;;5113285;28;20361;-72
2022/08/19 07:39:23;;;;;;;47.88;20.20;;;19.80;99.90;;;;;;5115651;28;20024;-72
2022/08/19 07:41:50;;;;;;;49.05;20.40;;;19.80;99.90;;;;;;5114988;28;20096;-72
2022/08/19 07:44:16;;;;;;;50.38;21.48;;;19.80;99.90;;;;;;5113714;28;20073;-72
2022/08/19 07:46:45;;;;;;;51.95;22.48;;;19.80;99.90;;;;;;5115581;28;20027;-72
2022/08/19 07:49:17;;;;;;;49.85;21.08;;;19.80;99.90;;;;;;5114911;28;20050;-72
2022/08/19 07:51:44;;;;;;;46.53;18.80;;;19.80;99.90;;;;;;5114927;28;20024;-72
2022/08/19 07:54:09;;;;;;;42.83;19.33;;;19.80;99.90;;;;;;5115124;28;20162;-72
2022/08/19 07:56:35;;;;;;;51.35;20.50;;;19.80;99.90;;;;;;5114786;28;20098;-72
2022/08/19 07:59:01;;;;;;;47.25;20.33;;;19.90;99.90;;;;;;5114933;28;20112;-72
2022/08/19 08:01:27;;;;;;;45.88;19.55;;;19.90;99.90;;;;;;5114996;28;20100;-72
2022/08/19 08:09:27;;;;;;;51.95;19.55;;;20.10;99.90;;;;;;5115051;28;20035;-72
2022/08/19 08:11:59;;;;;;;39.13;19.77;;;20.10;99.90;;;;;;5114296;28;20397;-72
2022/08/19 08:14:30;;;;;;;41.13;19.88;;;20.30;99.90;;;;;;5113221;28;20155;-72
2022/08/19 08:16:56;;;;;;;41.88;18.70;;;20.50;99.90;;;;;;5113362;28;20038;-72
2022/08/19 08:19:24;;;;;;;47.05;18.88;;;20.60;99.90;;;;;;5114253;28;20098;-72
2022/08/19 08:21:50;;;;;;;44.35;19.30;;;20.80;99.90;;;;;;5112897;28;20042;-72
2022/08/19 08:24:17;;;;;;;45.55;18.50;;;20.80;99.90;;;;;;5113002;28;20391;-72
2022/08/19 08:26:46;;;;;;;42.10;19.48;;;20.80;99.90;;;;;;5114190;28;20016;-72
2022/08/19 08:29:13;;;;;;;40.83;18.73;;;20.90;99.90;;;;;;5114102;28;20039;-72
2022/08/19 08:31:40;;;;;;;42.72;18.70;;;21.00;99.90;;;;;;5112823;28;20027;-72
2022/08/19 08:34:07;;;;;;;41.10;20.00;;;21.20;99.90;;;;;;5114561;28;20024;-72
2022/08/19 08:36:35;;;;;;;39.35;17.85;;;21.20;99.90;;;;;;5114373;28;20019;-72
2022/08/19 08:39:01;;;;;;;39.13;18.23;;;21.30;99.90;;;;;;5113944;28;20454;-72
2022/08/19 08:41:44;;;;;;;37.42;16.55;;;21.40;99.90;;;;;;5114086;28;20071;-72
2022/08/19 08:44:38;;;;;;;36.72;17.38;;;21.50;99.90;;;;;;5112753;28;20012;-72
2022/08/19 08:47:12;;;;;;;35.85;16.30;;;21.60;99.90;;;;;;5114226;28;20422;-72
2022/08/19 08:49:51;;;;;;;33.92;15.95;;;21.80;99.90;;;;;;5113079;28;20383;-72
2022/08/19 08:52:30;;;;;;;30.48;16.20;;;22.00;99.90;;;;;;5112553;28;20064;-72
2022/08/19 08:55:02;;;;;;;30.35;14.43;;;22.40;99.90;;;;;;5113821;28;20385;-75
2022/08/19 08:57:50;;;;;;;34.50;16.73;;;22.50;99.90;;;;;;5112596;28;20016;-73
2022/08/19 09:00:21;;;;;;;32.88;15.95;;;22.50;99.90;;;;;;5113691;28;20028;-72
2022/08/19 09:02:47;;;;;;;28.95;15.30;;;22.40;99.90;;;;;;5113937;28;20016;-73
2022/08/19 09:05:15;;;;;;;23.27;13.85;;;22.40;99.90;;;;;;5113695;28;20024;-73
2022/08/19 09:08:00;;;;;;;;;;;22.30;99.90;;;;;;5114139;28;20020;-73
2022/08/19 09:10:51;;;;;;;24.63;13.55;;;22.30;99.90;;;;;;5113893;28;19910;-74
2022/08/19 09:13:22;;;;;;;25.00;11.93;;;22.40;99.90;;;;;;5112444;28;20114;-75
2022/08/19 09:16:01;;;;;;;23.85;12.95;;;22.50;99.90;;;;;;5112462;28;20127;-74
2022/08/19 09:18:46;;;;;;;27.85;12.15;;;22.70;99.90;;;;;;5112478;28;20065;-77
2022/08/19 09:21:13;;;;;;;25.83;12.98;;;22.90;99.90;;;;;;5112511;28;20023;-73
2022/08/19 09:23:39;;;;;;;25.30;12.40;;;23.10;99.90;;;;;;5113543;28;20100;-73
2022/08/19 09:26:15;;;;;;;24.70;12.48;;;23.20;99.90;;;;;;5113643;28;20047;-75
2022/08/19 09:28:43;;;;;;;20.50;12.90;;;23.30;99.90;;;;;;5113602;28;20472;-73
2022/08/19 09:31:15;;;;;;;27.27;12.32;;;23.30;99.90;;;;;;5112196;28;20020;-74
2022/08/19 09:33:43;;;;;;;19.27;11.38;;;23.20;99.90;;;;;;5113719;28;20475;-77
2022/08/19 09:36:13;;;;;;;23.90;12.40;;;23.10;99.90;;;;;;5112320;28;20480;-73
2022/08/19 09:38:42;;;;;;;23.60;12.18;;;23.00;99.90;;;;;;5113530;28;20061;-73
2022/08/19 09:41:14;;;;;;;26.50;12.77;;;23.00;99.90;;;;;;5113942;28;20047;-72
2022/08/19 09:43:41;;;;;;;24.52;12.35;;;23.00;99.90;;;;;;5113358;28;20062;-74
2022/08/19 09:46:08;;;;;;;24.50;13.23;;;23.10;99.90;;;;;;5113522;28;20027;-75
2022/08/19 09:48:38;;;;;;;23.57;12.43;;;23.20;99.90;;;;;;5112114;28;20023;-77
2022/08/19 09:51:08;;;;;;;22.08;11.20;;;23.30;99.90;;;;;;5113405;28;20034;-75
2022/08/19 09:53:38;;;;;;;16.35;10.00;;;23.30;99.90;;;;;;5112041;28;20024;-72
2022/08/19 09:56:05;;;;;;;19.02;11.52;;;23.30;99.90;;;;;;5111997;28;20388;-73
2022/08/19 09:58:32;;;;;;;24.15;12.95;;;23.30;99.90;;;;;;5113397;28;20024;-73
2022/08/19 10:00:59;;;;;;;22.98;11.95;;;23.30;99.90;;;;;;5115363;28;20388;-76
2022/08/19 10:03:26;;;;;;;18.60;10.52;;;23.40;99.90;;;;;;5116980;28;20098;-74
2022/08/19 10:05:52;;;;;;;24.40;12.63;;;23.60;99.90;;;;;;5116997;28;20480;-73
2022/08/19 10:08:25;;;;;;;23.58;13.10;;;23.90;99.90;;;;;;5117257;28;20104;-74
2022/08/19 10:10:51;;;;;;;25.48;12.90;;;24.00;99.90;;;;;;5117686;28;20019;-73
2022/08/19 10:13:22;;;;;;;22.77;11.60;;;24.20;99.90;;;;;;5117011;28;20020;-73
2022/08/19 10:15:50;;;;;;;24.40;12.63;;;24.50;99.90;;;;;;5116784;28;20440;-73
2022/08/19 10:18:17;;;;;;;20.63;11.85;;;24.60;99.90;;;;;;5115322;28;20016;-73
2022/08/19 10:20:45;;;;;;;20.25;11.32;;;24.50;99.90;;;;;;5116683;28;20023;-74
2022/08/19 10:23:11;;;;;;;23.10;12.60;;;24.60;99.90;;;;;;5115297;28;20030;-73
2022/08/19 10:25:37;;;;;;;23.08;12.90;;;24.60;99.90;;;;;;5116529;28;20388;-73
2022/08/19 10:28:05;;;;;;;22.02;12.30;;;24.50;99.90;;;;;;5116449;28;20012;-73
2022/08/19 10:30:31;;;;;;;23.77;11.52;;;24.70;99.90;;;;;;5115144;28;20123;-73
2022/08/19 10:32:57;;;;;;;19.73;12.07;;;25.00;99.90;;;;;;5115051;28;20039;-73
2022/08/19 10:35:24;;;;;;;18.70;11.57;;;25.10;99.90;;;;;;5116189;28;20019;-73
2022/08/19 10:37:50;;;;;;;28.48;12.30;;;25.40;99.90;;;;;;5116253;28;20019;-73
2022/08/19 10:40:15;;;;;;;21.10;11.80;;;25.60;99.90;;;;;;5114935;28;20027;-73
2022/08/19 10:42:41;;;;;;;22.75;12.20;;;25.80;99.90;;;;;;5116537;28;20026;-73
2022/08/19 10:45:09;;;;;;;21.65;13.70;;;25.80;99.90;;;;;;5116712;28;20068;-73
2022/08/19 10:47:35;;;;;;;21.85;12.32;;;25.70;99.90;;;;;;5116727;28;20019;-73
2022/08/19 10:52:47;;;;;;;18.02;10.70;;;25.50;99.90;;;;;;5116055;28;20034;-73
2022/08/19 10:57:57;;;;;;;20.48;10.95;;;25.20;99.90;;;;;;5116714;28;20045;-73
2022/08/19 11:00:24;;;;;;;22.00;12.30;;;25.10;99.90;;;;;;5116443;28;20098;-73
2022/08/19 11:02:51;;;;;;;22.20;12.90;;;25.10;99.90;;;;;;5115857;28;20443;-73
2022/08/19 11:05:18;;;;;;;22.75;13.40;;;25.20;99.90;;;;;;5115902;28;20022;-73
2022/08/19 11:07:44;;;;;;;18.85;11.07;;;25.20;99.90;;;;;;5115963;28;20032;-73
2022/08/19 11:10:11;;;;;;;24.00;11.40;;;25.40;99.90;;;;;;5115836;28;20028;-73
2022/08/19 11:12:39;;;;;;;23.85;12.35;;;25.70;99.90;;;;;;5114757;28;20051;-73
2022/08/19 11:15:10;;;;;;;25.60;10.93;;;26.10;99.90;;;;;;5115524;28;20027;-73
2022/08/19 11:17:41;;;;;;;18.92;10.70;;;26.60;99.90;;;;;;5115595;28;20098;-73
2022/08/19 11:20:08;;;;;;;18.15;10.80;;;27.00;99.90;;;;;;5115650;28;20020;-73
2022/08/19 11:22:34;;;;;;;19.42;11.07;;;26.90;99.90;;;;;;5115427;28;20365;-73
2022/08/19 11:25:00;;;;;;;17.05;9.93;;;26.60;99.90;;;;;;5115453;28;20023;-73
2022/08/19 11:27:26;;;;;;;23.48;11.85;;;26.40;99.90;;;;;;5115928;28;20068;-73
2022/08/19 11:29:52;;;;;;;19.48;10.55;;;26.20;99.90;;;;;;5115382;28;20095;-73
2022/08/19 11:32:18;;;;;;;25.13;12.13;;;25.90;99.90;;;;;;5115847;28;20026;-73
2022/08/19 11:34:43;;;;;;;20.63;10.98;;;25.70;99.90;;;;;;5115176;28;20027;-73
2022/08/19 11:37:09;;;;;;;26.50;11.85;;;25.40;99.90;;;;;;5115198;28;20020;-73
2022/08/19 11:39:36;;;;;;;20.05;10.57;;;25.10;99.90;;;;;;5115097;28;20032;-74
2022/08/19 11:42:55;;;;;;;22.25;11.15;;;24.90;99.90;;;;;;5114545;28;20016;-73
2022/08/19 11:44:53;;;;;;;20.85;11.88;;;24.60;99.90;;;;;;5114901;28;20028;-73
2022/08/19 11:47:19;;;;;;;17.80;10.60;;;24.50;99.90;;;;;;5113855;28;20054;-73
2022/08/19 11:49:46;;;;;;;21.45;12.27;;;24.50;99.90;;;;;;5115089;28;20051;-73
2022/08/19 11:52:11;;;;;;;23.33;11.45;;;24.60;99.90;;;;;;5113630;28;20392;-73
2022/08/19 11:54:37;;;;;;;24.02;12.27;;;24.80;99.90;;;;;;5114810;28;20020;-73
2022/08/19 11:57:03;;;;;;;23.08;11.80;;;24.90;99.90;;;;;;5114801;28;20032;-73
2022/08/19 11:59:29;;;;;;;19.10;11.57;;;24.90;99.90;;;;;;5114764;28;20072;-73
2022/08/19 12:01:55;;;;;;;18.08;11.43;;;24.70;99.90;;;;;;5114627;28;20020;-73
2022/08/19 12:04:22;;;;;;;20.60;11.35;;;24.60;99.90;;;;;;5114667;28;20015;-73
2022/08/19 12:06:47;;;;;;;23.73;10.80;;;24.50;99.90;;;;;;5114599;28;20027;-73
2022/08/19 12:09:15;;;;;;;17.52;10.00;;;24.40;99.90;;;;;;5113280;28;20022;-73
2022/08/19 12:11:40;;;;;;;12.88;7.50;;;24.40;99.90;;;;;;5114536;28;20388;-73
2022/08/19 12:14:09;;;;;;;12.40;7.72;;;24.50;99.90;;;;;;5114383;28;20022;-73
2022/08/19 12:16:35;;;;;;;9.80;6.60;;;24.70;99.90;;;;;;5114293;28;20042;-73
2022/08/19 12:19:03;;;;;;;6.22;4.05;;;24.90;99.90;;;;;;5114372;28;20023;-73
2022/08/19 12:21:31;;;;;;;5.35;3.60;;;25.00;99.90;;;;;;5114416;28;20012;-73
2022/08/19 12:23:58;;;;;;;6.15;3.08;;;25.20;99.90;;;;;;5114231;28;20107;-73
2022/08/19 12:26:25;;;;;;;8.82;3.08;;;25.30;99.90;;;;;;5114241;28;20015;-73
2022/08/19 12:28:51;;;;;;;5.10;2.65;;;25.40;99.90;;;;;;5114245;28;20024;-73
2022/08/19 12:31:19;;;;;;;8.02;2.97;;;25.50;99.90;;;;;;5113255;28;20031;-73
2022/08/19 12:33:45;;;;;;;5.47;3.47;;;25.50;99.90;;;;;;5112889;28;20050;-73
2022/08/19 12:36:13;;;;;;;5.13;2.70;;;25.40;99.90;;;;;;5114107;28;20031;-73
2022/08/19 12:38:39;;;;;;;7.03;4.25;;;25.50;99.90;;;;;;5114322;28;20031;-73
2022/08/19 12:41:06;;;;;;;6.95;3.70;;;25.50;99.90;;;;;;5114567;28;20023;-73
2022/08/19 12:43:37;;;;;;;5.38;3.50;;;25.40;99.90;;;;;;5112740;28;20020;-73
2022/08/19 12:46:04;;;;;;;8.75;3.22;;;25.30;99.90;;;;;;5114102;28;20100;-73
2022/08/19 12:48:34;;;;;;;8.00;2.67;;;25.10;99.90;;;;;;5112649;28;20434;-73
2022/08/19 12:51:01;;;;;;;6.22;2.92;;;25.00;99.90;;;;;;5113969;28;20071;-73
2022/08/19 12:53:28;;;;;;;5.90;2.58;;;24.90;99.90;;;;;;5112523;28;20509;-73
2022/08/19 12:55:59;;;;;;;5.30;2.85;;;24.90;99.90;;;;;;5113914;28;20491;-73
2022/08/19 12:58:26;;;;;;;4.78;3.40;;;24.90;99.90;;;;;;5113817;28;20100;-74
2022/08/19 13:00:52;;;;;;;8.32;4.82;;;24.80;99.90;;;;;;5113866;28;20068;-74